Edgewood, Maryland
Current Conditions -  °F | °C
As of 2:45 AM on Tuesday 21 Oct 2014 (Local Time) from KMTN Reporting Station
Drizzle Drizzle  
Wind Chill: 54°   Ceiling: Unl
Heat Index: 54°   Visibility: 10mi
Dew Point: 54°   Wind: 0mph
Humidity: 100%   Direction: NA
Pressure: 29.91"   Gusts: NA
Location:  39.43°N, 76.3°W
Report Text: KMTN 210645Z AUTO 00000KT 10SM -DZ SCT010 SCT014 SCT050 12/12 A2991 RMK AO2 P0001
Loading
Personal Weather Stations






























Interactive Weather Map
Tropical Storm Tracking
New forecast layout! Learn more

10-Day Weather Forecast

Advertisements
Track Severe Weather on mobile